Terminal Aerodrome Forecast
Issued by NWS Grand Forks, ND

Home | Current Version | Previous Version | Text Only | Print | Product List | Glossary Off
Versions: 1 2 3 4 5 6 7 8 9 10 11 12 13 14 15

000
FTUS43 KFGF 151100
TAFFAR
TAF
KFAR 151122Z 1512/1612 16017G23KT P6SM SCT250
     FM151500 17025G35KT P6SM SKC
     FM160200 17013KT P6SM SKC
     FM160600 VRB05KT P6SM BKN150=

USA.gov is the U.S. government's official web portal to all federal, state and local government web resources and services.